Charles W Clark — WCP7548 — position and weather

sailwx.info

Track history (hours):
 
Tides and Currents Weather Stations Pressure Air Temp Water Temp Dewpoint Dewpoint Depression Visibility Wind Speed Wind Dir Waves Ship Positions

Charles W Clark

Owner: BLESSEY ENTERPRISES INC, HARAHAN, LA. More information available from US FCC via Universal Licensing System and Coast Guard Vessel Documentation Center.

Last reported at 2018-Jun-20 01:44 UTC. Time now 2018-Jun-20 20:59 UTC.
Position N 29°43' W 095°03'.

Length 20 m.

Type: Towing. MMSI: 366933680.

Date/timePositionNaut miles runAvg speedWind from/ knotsBaromVisibWave heightAir tempDewpointWater temp
2018-Jun-20 01:44N 29°43' W 095°03'0 0.0
2018-Jun-20 01:30N 29°43' W 095°03'  
2018-Jun-14 07:55N 29°47' W 095°05'6 1.6
2018-Jun-14 04:06N 29°42' W 095°01'1 5.9
2018-Jun-14 03:55N 29°42' W 094°60'2 5.8
2018-Jun-14 03:29N 29°40' W 094°58'3 6.3
2018-Jun-14 02:58N 29°37' W 094°57'16 5.8
2018-Jun-14 00:13N 29°23' W 094°48'1 5.0
2018-Jun-14 00:00N 29°22' W 094°47'3 5.7
2018-Jun-13 23:29N 29°24' W 094°45'2 3.4
2018-Jun-13 22:46N 29°26' W 094°43'2 6.2
2018-Jun-13 22:28N 29°27' W 094°41'4 6.1
2018-Jun-13 21:45N 29°29' W 094°36'11 5.8
2018-Jun-13 19:56N 29°34' W 094°25'2 4.8
2018-Jun-13 19:29N 29°36' W 094°24'3 4.9
2018-Jun-13 18:58N 29°37' W 094°21'3 5.6
2018-Jun-13 18:30N 29°38' W 094°19'3 5.6
2018-Jun-13 18:01N 29°39' W 094°16'3 5.8
2018-Jun-13 17:31N 29°40' W 094°13'3 5.7
2018-Jun-13 17:00N 29°41' W 094°10'3 5.1
2018-Jun-13 16:30N 29°43' W 094°07'3 5.7
2018-Jun-13 16:01N 29°45' W 094°05'3 5.7
2018-Jun-13 15:31N 29°46' W 094°02'3 5.8
2018-Jun-13 15:00N 29°48' W 093°60'3 5.1
2018-Jun-13 14:31N 29°50' W 093°58'0 0.4
2018-Jun-13 14:00N 29°50' W 093°57'0 0.0
2018-Jun-13 13:30N 29°50' W 093°57'0 0.0
2018-Jun-13 13:01N 29°50' W 093°57'0 0.0
2018-Jun-13 12:30N 29°50' W 093°57'0 0.0
2018-Jun-13 12:00N 29°50' W 093°57'0 0.0
2018-Jun-13 11:31N 29°50' W 093°57'0 0.0
2018-Jun-13 11:00N 29°50' W 093°57'0 0.0
2018-Jun-13 10:31N 29°50' W 093°57'0 0.0
2018-Jun-13 10:00N 29°50' W 093°57'0 0.0
2018-Jun-13 09:31N 29°50' W 093°57'0 0.0
2018-Jun-13 09:00N 29°50' W 093°57'0 0.0
2018-Jun-13 08:31N 29°50' W 093°57'0 0.0
2018-Jun-13 08:01N 29°50' W 093°57'0 0.0
2018-Jun-13 07:31N 29°50' W 093°57'0 0.6
2018-Jun-13 07:00N 29°50' W 093°58'0 0.5
2018-Jun-13 06:30N 29°50' W 093°57'0 0.0
2018-Jun-13 05:59N 29°50' W 093°57'0 0.0
2018-Jun-13 05:30N 29°50' W 093°57'0 0.0
2018-Jun-13 04:59N 29°50' W 093°57'0 0.0
2018-Jun-13 04:30N 29°50' W 093°57'0 0.0
2018-Jun-13 03:59N 29°50' W 093°57'0 0.0
2018-Jun-13 03:26N 29°50' W 093°57'0 0.0
2018-Jun-13 03:01N 29°50' W 093°57'0 0.0
2018-Jun-13 02:29N 29°50' W 093°57'0 0.0
2018-Jun-13 01:59N 29°50' W 093°57'0 0.0
2018-Jun-13 01:31N 29°50' W 093°57'0 0.0
2018-Jun-13 01:00N 29°50' W 093°57'0 0.0
2018-Jun-13 00:29N 29°50' W 093°57'0 0.0
2018-Jun-13 00:00N 29°50' W 093°57'0 0.0
2018-Jun-12 23:28N 29°50' W 093°57'1 1.3
2018-Jun-12 23:00N 29°49' W 093°58'1 3.0
2018-Jun-12 22:30N 29°49' W 093°59'0 0.0
2018-Jun-12 21:59N 29°49' W 093°59'0 0.0
2018-Jun-12 21:30N 29°49' W 093°59'0 0.0
2018-Jun-12 21:01N 29°49' W 093°59'0 0.0
2018-Jun-12 20:30N 29°49' W 093°59'0 0.0
2018-Jun-12 20:00N 29°49' W 093°59'0 0.0
2018-Jun-12 19:30N 29°49' W 093°59'0 0.0
2018-Jun-12 19:00N 29°49' W 093°59'0 1.0
2018-Jun-12 18:31N 29°49' W 093°59'2 3.3
2018-Jun-12 18:00N 29°50' W 093°58'0 0.0
2018-Jun-12 17:31N 29°50' W 093°58'0 0.0
2018-Jun-12 17:00N 29°50' W 093°58'0 0.0
2018-Jun-12 16:31N 29°50' W 093°58'0 0.0
2018-Jun-12 16:00N 29°50' W 093°58'0 0.4
2018-Jun-12 15:30N 29°50' W 093°58'2 3.1
2018-Jun-12 15:00N 29°50' W 093°59'0 0.0
2018-Jun-12 14:31N 29°50' W 093°59'0 0.0
2018-Jun-12 14:01N 29°50' W 093°59'0 0.0
2018-Jun-12 13:31N 29°50' W 093°59'0 0.0
2018-Jun-12 13:01N 29°50' W 093°59'0 0.0
2018-Jun-12 12:31N 29°50' W 093°59'0 0.0
2018-Jun-12 12:01N 29°50' W 093°59'0 0.0
2018-Jun-12 11:31N 29°49' W 093°59'0 0.0
2018-Jun-12 11:01N 29°50' W 093°59'0 0.0
2018-Jun-12 10:29N 29°50' W 093°59'0 0.0
2018-Jun-12 10:00N 29°49' W 093°59'0 0.0
2018-Jun-12 09:30N 29°50' W 093°59'0 0.0
2018-Jun-12 09:01N 29°50' W 093°59'0 0.0
2018-Jun-12 08:30N 29°50' W 093°59'0 0.0
2018-Jun-12 07:59N 29°50' W 093°59'0 0.0
2018-Jun-12 07:30N 29°50' W 093°59'0 0.0
2018-Jun-12 07:00N 29°50' W 093°59'0 0.0
2018-Jun-12 06:31N 29°49' W 093°59'0 0.0
2018-Jun-12 06:00N 29°49' W 093°59'0 0.0
2018-Jun-12 05:31N 29°50' W 093°59'0 0.0
2018-Jun-12 05:00N 29°50' W 093°59'0 0.0
2018-Jun-12 04:31N 29°49' W 093°59'0 0.0
2018-Jun-12 04:01N 29°50' W 093°59'0 0.0
2018-Jun-12 03:30N 29°49' W 093°59'0 0.0
2018-Jun-12 03:00N 29°50' W 093°59'0 0.0
2018-Jun-12 02:31N 29°50' W 093°59'0 0.0
2018-Jun-12 01:59N 29°50' W 093°59'0 0.0
2018-Jun-12 01:30N 29°50' W 093°59'0 0.0
2018-Jun-12 01:00N 29°50' W 093°59'0 0.0
2018-Jun-12 00:31N 29°50' W 093°59'0 0.0
2018-Jun-12 00:00N 29°50' W 093°59'0 0.0
2018-Jun-11 23:31N 29°50' W 093°59'0 0.0
2018-Jun-11 23:01N 29°50' W 093°59'0 0.0
2018-Jun-11 22:31N 29°50' W 093°59'0 0.0
2018-Jun-11 22:00N 29°50' W 093°59'0 0.0
2018-Jun-11 21:29N 29°50' W 093°59'0 0.0
2018-Jun-11 20:59N 29°50' W 093°59'0 0.0
2018-Jun-11 20:30N 29°50' W 093°59'0 0.0
2018-Jun-11 20:01N 29°50' W 093°59'0 0.0
2018-Jun-11 19:30N 29°50' W 093°59'0 0.0
2018-Jun-11 19:00N 29°50' W 093°59'0 0.0
2018-Jun-11 18:31N 29°50' W 093°59'0 0.0
2018-Jun-11 18:01N 29°50' W 093°59'0 0.0
2018-Jun-11 17:31N 29°50' W 093°59'0 0.0
2018-Jun-11 17:01N 29°50' W 093°59'0 0.0
2018-Jun-11 16:30N 29°50' W 093°59'0 0.0
2018-Jun-11 16:00N 29°50' W 093°59'0 0.0
2018-Jun-11 15:31N 29°50' W 093°59'0 0.0
2018-Jun-11 15:00N 29°50' W 093°59'0 0.0
2018-Jun-11 14:31N 29°50' W 093°59'0 0.0
2018-Jun-11 14:01N 29°50' W 093°59'0 0.0
2018-Jun-11 13:30N 29°50' W 093°59'0 0.0
2018-Jun-11 13:01N 29°50' W 093°59'0 0.0
2018-Jun-11 12:31N 29°49' W 093°59'0 0.0
2018-Jun-11 12:01N 29°50' W 093°59'0 0.0
2018-Jun-11 11:31N 29°50' W 093°59'0 0.0
2018-Jun-11 11:00N 29°50' W 093°59'0 0.0
2018-Jun-11 10:31N 29°50' W 093°59'0 0.0
2018-Jun-11 10:01N 29°50' W 093°59'0 0.0
2018-Jun-11 09:30N 29°50' W 093°59'0 0.0
2018-Jun-11 09:01N 29°50' W 093°59'0 0.0
2018-Jun-11 08:30N 29°50' W 093°59'0 0.0
2018-Jun-11 08:00N 29°50' W 093°59'0 0.0
2018-Jun-11 07:30N 29°50' W 093°59'0 0.0
2018-Jun-11 07:00N 29°50' W 093°59'0 0.0
2018-Jun-11 06:31N 29°49' W 093°59'0 0.0
2018-Jun-11 06:01N 29°49' W 093°59'0 0.0
2018-Jun-11 05:30N 29°49' W 093°59'0 0.0
2018-Jun-11 05:01N 29°49' W 093°59'0 0.0
2018-Jun-11 04:30N 29°49' W 093°59'0 0.0
2018-Jun-11 04:01N 29°49' W 093°59'0 0.0
2018-Jun-11 03:31N 29°49' W 093°59'0 0.0
2018-Jun-11 03:00N 29°49' W 093°59'0 0.0
2018-Jun-11 02:30N 29°49' W 093°59'0 0.0
2018-Jun-11 02:01N 29°49' W 093°59'0 0.0
2018-Jun-11 01:31N 29°49' W 093°59'0 0.0
2018-Jun-11 01:00N 29°49' W 093°59'0 0.0
2018-Jun-11 00:31N 29°49' W 093°59'0 0.0
2018-Jun-11 00:01N 29°49' W 093°59'0 0.0
2018-Jun-10 23:30N 29°50' W 093°59'0 0.0
2018-Jun-10 23:00N 29°49' W 093°59'0 0.0
2018-Jun-10 22:31N 29°49' W 093°59'0 0.0
2018-Jun-10 22:01N 29°49' W 093°59'0 0.0
2018-Jun-10 21:30N 29°50' W 093°59'0 0.0
2018-Jun-10 21:01N 29°50' W 093°59'0 0.0
2018-Jun-10 20:30N 29°50' W 093°59'0 0.0
2018-Jun-10 20:01N 29°50' W 093°59'0 0.0
2018-Jun-10 19:30N 29°49' W 093°59'0 0.0
2018-Jun-10 19:00N 29°49' W 093°59'0 0.0
2018-Jun-10 18:30N 29°49' W 093°59'0 0.0
2018-Jun-10 18:01N 29°49' W 093°59'0 0.0
2018-Jun-10 17:30N 29°49' W 093°59'0 0.0
2018-Jun-10 17:00N 29°49' W 093°59'0 0.0
2018-Jun-10 16:30N 29°49' W 093°59'0 0.0
2018-Jun-10 16:00N 29°49' W 093°59'0 0.0
2018-Jun-10 15:31N 29°49' W 093°59'0 0.0
2018-Jun-10 15:01N 29°49' W 093°59'0 0.0
2018-Jun-10 14:30N 29°49' W 093°59'0 0.0
2018-Jun-10 13:31N 29°49' W 093°59'0 0.0
2018-Jun-10 13:01N 29°49' W 093°59'0 0.0
2018-Jun-10 12:30N 29°49' W 093°59'0 0.0
2018-Jun-10 12:00N 29°49' W 093°59'0 0.0
2018-Jun-10 11:31N 29°49' W 093°59'0 0.0
2018-Jun-10 11:01N 29°49' W 093°59'0 0.0
2018-Jun-10 10:30N 29°49' W 093°59'0 0.0
2018-Jun-10 10:00N 29°49' W 093°59'0 0.0
2018-Jun-10 09:30N 29°49' W 093°59'0 0.0
2018-Jun-10 09:00N 29°49' W 093°59'0 0.0
2018-Jun-10 08:30N 29°49' W 093°59'0 0.0
2018-Jun-10 08:01N 29°49' W 093°59'0 0.0
2018-Jun-10 07:31N 29°50' W 093°59'0 0.0
2018-Jun-10 07:00N 29°49' W 093°59'0 0.0
2018-Jun-10 06:30N 29°49' W 093°59'0 0.0
2018-Jun-10 06:00N 29°49' W 093°59'0 0.0
2018-Jun-10 05:30N 29°49' W 093°59'0 0.0
2018-Jun-10 05:01N 29°49' W 093°59'0 0.0
2018-Jun-10 04:30N 29°49' W 093°59'0 0.0
2018-Jun-10 04:00N 29°49' W 093°59'0 0.0
2018-Jun-10 03:31N 29°49' W 093°59'0 0.0
2018-Jun-10 03:01N 29°49' W 093°59'0 0.0
2018-Jun-10 02:30N 29°49' W 093°59'0 0.0
2018-Jun-10 02:01N 29°49' W 093°59'  
Track history (hours):
 
Tides and Currents Weather Stations Pressure Air Temp Water Temp Dewpoint Dewpoint Depression Visibility Wind Speed Wind Dir Waves Ship Positions

Charles W Clark

Owner: BLESSEY ENTERPRISES INC, HARAHAN, LA. More information available from US FCC via Universal Licensing System and Coast Guard Vessel Documentation Center.

Last reported at 2018-Jun-20 01:44 UTC. Time now 2018-Jun-20 20:59 UTC.
Position N 29°43' W 095°03'.

Length 20 m.

Type: Towing. MMSI: 366933680.

Date/timePositionNaut miles runAvg speedWind from/ knotsBaromVisibWave heightAir tempDewpointWater temp
2018-Jun-20 01:44N 29°43' W 095°03'0 0.0
2018-Jun-20 01:30N 29°43' W 095°03'  
2018-Jun-14 07:55N 29°47' W 095°05'6 1.6
2018-Jun-14 04:06N 29°42' W 095°01'1 5.9
2018-Jun-14 03:55N 29°42' W 094°60'2 5.8
2018-Jun-14 03:29N 29°40' W 094°58'3 6.3
2018-Jun-14 02:58N 29°37' W 094°57'16 5.8
2018-Jun-14 00:13N 29°23' W 094°48'1 5.0
2018-Jun-14 00:00N 29°22' W 094°47'3 5.7
2018-Jun-13 23:29N 29°24' W 094°45'2 3.4
2018-Jun-13 22:46N 29°26' W 094°43'2 6.2
2018-Jun-13 22:28N 29°27' W 094°41'4 6.1
2018-Jun-13 21:45N 29°29' W 094°36'11 5.8
2018-Jun-13 19:56N 29°34' W 094°25'2 4.8
2018-Jun-13 19:29N 29°36' W 094°24'3 4.9
2018-Jun-13 18:58N 29°37' W 094°21'3 5.6
2018-Jun-13 18:30N 29°38' W 094°19'3 5.6
2018-Jun-13 18:01N 29°39' W 094°16'3 5.8
2018-Jun-13 17:31N 29°40' W 094°13'3 5.7
2018-Jun-13 17:00N 29°41' W 094°10'3 5.1
2018-Jun-13 16:30N 29°43' W 094°07'3 5.7
2018-Jun-13 16:01N 29°45' W 094°05'3 5.7
2018-Jun-13 15:31N 29°46' W 094°02'3 5.8
2018-Jun-13 15:00N 29°48' W 093°60'3 5.1
2018-Jun-13 14:31N 29°50' W 093°58'0 0.4
2018-Jun-13 14:00N 29°50' W 093°57'0 0.0
2018-Jun-13 13:30N 29°50' W 093°57'0 0.0
2018-Jun-13 13:01N 29°50' W 093°57'0 0.0
2018-Jun-13 12:30N 29°50' W 093°57'0 0.0
2018-Jun-13 12:00N 29°50' W 093°57'0 0.0
2018-Jun-13 11:31N 29°50' W 093°57'0 0.0
2018-Jun-13 11:00N 29°50' W 093°57'0 0.0
2018-Jun-13 10:31N 29°50' W 093°57'0 0.0
2018-Jun-13 10:00N 29°50' W 093°57'0 0.0
2018-Jun-13 09:31N 29°50' W 093°57'0 0.0
2018-Jun-13 09:00N 29°50' W 093°57'0 0.0
2018-Jun-13 08:31N 29°50' W 093°57'0 0.0
2018-Jun-13 08:01N 29°50' W 093°57'0 0.0
2018-Jun-13 07:31N 29°50' W 093°57'0 0.6
2018-Jun-13 07:00N 29°50' W 093°58'0 0.5
2018-Jun-13 06:30N 29°50' W 093°57'0 0.0
2018-Jun-13 05:59N 29°50' W 093°57'0 0.0
2018-Jun-13 05:30N 29°50' W 093°57'0 0.0
2018-Jun-13 04:59N 29°50' W 093°57'0 0.0
2018-Jun-13 04:30N 29°50' W 093°57'0 0.0
2018-Jun-13 03:59N 29°50' W 093°57'0 0.0
2018-Jun-13 03:26N 29°50' W 093°57'0 0.0
2018-Jun-13 03:01N 29°50' W 093°57'0 0.0
2018-Jun-13 02:29N 29°50' W 093°57'0 0.0
2018-Jun-13 01:59N 29°50' W 093°57'0 0.0
2018-Jun-13 01:31N 29°50' W 093°57'0 0.0
2018-Jun-13 01:00N 29°50' W 093°57'0 0.0
2018-Jun-13 00:29N 29°50' W 093°57'0 0.0
2018-Jun-13 00:00N 29°50' W 093°57'0 0.0
2018-Jun-12 23:28N 29°50' W 093°57'1 1.3
2018-Jun-12 23:00N 29°49' W 093°58'1 3.0
2018-Jun-12 22:30N 29°49' W 093°59'0 0.0
2018-Jun-12 21:59N 29°49' W 093°59'0 0.0
2018-Jun-12 21:30N 29°49' W 093°59'0 0.0
2018-Jun-12 21:01N 29°49' W 093°59'0 0.0
2018-Jun-12 20:30N 29°49' W 093°59'0 0.0
2018-Jun-12 20:00N 29°49' W 093°59'0 0.0
2018-Jun-12 19:30N 29°49' W 093°59'0 0.0
2018-Jun-12 19:00N 29°49' W 093°59'0 1.0
2018-Jun-12 18:31N 29°49' W 093°59'2 3.3
2018-Jun-12 18:00N 29°50' W 093°58'0 0.0
2018-Jun-12 17:31N 29°50' W 093°58'0 0.0
2018-Jun-12 17:00N 29°50' W 093°58'0 0.0
2018-Jun-12 16:31N 29°50' W 093°58'0 0.0
2018-Jun-12 16:00N 29°50' W 093°58'0 0.4
2018-Jun-12 15:30N 29°50' W 093°58'2 3.1
2018-Jun-12 15:00N 29°50' W 093°59'0 0.0
2018-Jun-12 14:31N 29°50' W 093°59'0 0.0
2018-Jun-12 14:01N 29°50' W 093°59'0 0.0
2018-Jun-12 13:31N 29°50' W 093°59'0 0.0
2018-Jun-12 13:01N 29°50' W 093°59'0 0.0
2018-Jun-12 12:31N 29°50' W 093°59'0 0.0
2018-Jun-12 12:01N 29°50' W 093°59'0 0.0
2018-Jun-12 11:31N 29°49' W 093°59'0 0.0
2018-Jun-12 11:01N 29°50' W 093°59'0 0.0
2018-Jun-12 10:29N 29°50' W 093°59'0 0.0
2018-Jun-12 10:00N 29°49' W 093°59'0 0.0
2018-Jun-12 09:30N 29°50' W 093°59'0 0.0
2018-Jun-12 09:01N 29°50' W 093°59'0 0.0
2018-Jun-12 08:30N 29°50' W 093°59'0 0.0
2018-Jun-12 07:59N 29°50' W 093°59'0 0.0
2018-Jun-12 07:30N 29°50' W 093°59'0 0.0
2018-Jun-12 07:00N 29°50' W 093°59'0 0.0
2018-Jun-12 06:31N 29°49' W 093°59'0 0.0
2018-Jun-12 06:00N 29°49' W 093°59'0 0.0
2018-Jun-12 05:31N 29°50' W 093°59'0 0.0
2018-Jun-12 05:00N 29°50' W 093°59'0 0.0
2018-Jun-12 04:31N 29°49' W 093°59'0 0.0
2018-Jun-12 04:01N 29°50' W 093°59'0 0.0
2018-Jun-12 03:30N 29°49' W 093°59'0 0.0
2018-Jun-12 03:00N 29°50' W 093°59'0 0.0
2018-Jun-12 02:31N 29°50' W 093°59'0 0.0
2018-Jun-12 01:59N 29°50' W 093°59'0 0.0
2018-Jun-12 01:30N 29°50' W 093°59'0 0.0
2018-Jun-12 01:00N 29°50' W 093°59'0 0.0
2018-Jun-12 00:31N 29°50' W 093°59'0 0.0
2018-Jun-12 00:00N 29°50' W 093°59'0 0.0
2018-Jun-11 23:31N 29°50' W 093°59'0 0.0
2018-Jun-11 23:01N 29°50' W 093°59'0 0.0
2018-Jun-11 22:31N 29°50' W 093°59'0 0.0
2018-Jun-11 22:00N 29°50' W 093°59'0 0.0
2018-Jun-11 21:29N 29°50' W 093°59'0 0.0
2018-Jun-11 20:59N 29°50' W 093°59'0 0.0
2018-Jun-11 20:30N 29°50' W 093°59'0 0.0
2018-Jun-11 20:01N 29°50' W 093°59'0 0.0
2018-Jun-11 19:30N 29°50' W 093°59'0 0.0
2018-Jun-11 19:00N 29°50' W 093°59'0 0.0
2018-Jun-11 18:31N 29°50' W 093°59'0 0.0
2018-Jun-11 18:01N 29°50' W 093°59'0 0.0
2018-Jun-11 17:31N 29°50' W 093°59'0 0.0
2018-Jun-11 17:01N 29°50' W 093°59'0 0.0
2018-Jun-11 16:30N 29°50' W 093°59'0 0.0
2018-Jun-11 16:00N 29°50' W 093°59'0 0.0
2018-Jun-11 15:31N 29°50' W 093°59'0 0.0
2018-Jun-11 15:00N 29°50' W 093°59'0 0.0
2018-Jun-11 14:31N 29°50' W 093°59'0 0.0
2018-Jun-11 14:01N 29°50' W 093°59'0 0.0
2018-Jun-11 13:30N 29°50' W 093°59'0 0.0
2018-Jun-11 13:01N 29°50' W 093°59'0 0.0
2018-Jun-11 12:31N 29°49' W 093°59'0 0.0
2018-Jun-11 12:01N 29°50' W 093°59'0 0.0
2018-Jun-11 11:31N 29°50' W 093°59'0 0.0
2018-Jun-11 11:00N 29°50' W 093°59'0 0.0
2018-Jun-11 10:31N 29°50' W 093°59'0 0.0
2018-Jun-11 10:01N 29°50' W 093°59'0 0.0
2018-Jun-11 09:30N 29°50' W 093°59'0 0.0
2018-Jun-11 09:01N 29°50' W 093°59'0 0.0
2018-Jun-11 08:30N 29°50' W 093°59'0 0.0
2018-Jun-11 08:00N 29°50' W 093°59'0 0.0
2018-Jun-11 07:30N 29°50' W 093°59'0 0.0
2018-Jun-11 07:00N 29°50' W 093°59'0 0.0
2018-Jun-11 06:31N 29°49' W 093°59'0 0.0
2018-Jun-11 06:01N 29°49' W 093°59'0 0.0
2018-Jun-11 05:30N 29°49' W 093°59'0 0.0
2018-Jun-11 05:01N 29°49' W 093°59'0 0.0
2018-Jun-11 04:30N 29°49' W 093°59'0 0.0
2018-Jun-11 04:01N 29°49' W 093°59'0 0.0
2018-Jun-11 03:31N 29°49' W 093°59'0 0.0
2018-Jun-11 03:00N 29°49' W 093°59'0 0.0
2018-Jun-11 02:30N 29°49' W 093°59'0 0.0
2018-Jun-11 02:01N 29°49' W 093°59'0 0.0
2018-Jun-11 01:31N 29°49' W 093°59'0 0.0
2018-Jun-11 01:00N 29°49' W 093°59'0 0.0
2018-Jun-11 00:31N 29°49' W 093°59'0 0.0
2018-Jun-11 00:01N 29°49' W 093°59'0 0.0
2018-Jun-10 23:30N 29°50' W 093°59'0 0.0
2018-Jun-10 23:00N 29°49' W 093°59'0 0.0
2018-Jun-10 22:31N 29°49' W 093°59'0 0.0
2018-Jun-10 22:01N 29°49' W 093°59'0 0.0
2018-Jun-10 21:30N 29°50' W 093°59'0 0.0
2018-Jun-10 21:01N 29°50' W 093°59'0 0.0
2018-Jun-10 20:30N 29°50' W 093°59'0 0.0
2018-Jun-10 20:01N 29°50' W 093°59'0 0.0
2018-Jun-10 19:30N 29°49' W 093°59'0 0.0
2018-Jun-10 19:00N 29°49' W 093°59'0 0.0
2018-Jun-10 18:30N 29°49' W 093°59'0 0.0
2018-Jun-10 18:01N 29°49' W 093°59'0 0.0
2018-Jun-10 17:30N 29°49' W 093°59'0 0.0
2018-Jun-10 17:00N 29°49' W 093°59'0 0.0
2018-Jun-10 16:30N 29°49' W 093°59'0 0.0
2018-Jun-10 16:00N 29°49' W 093°59'0 0.0
2018-Jun-10 15:31N 29°49' W 093°59'0 0.0
2018-Jun-10 15:01N 29°49' W 093°59'0 0.0
2018-Jun-10 14:30N 29°49' W 093°59'0 0.0
2018-Jun-10 13:31N 29°49' W 093°59'0 0.0
2018-Jun-10 13:01N 29°49' W 093°59'0 0.0
2018-Jun-10 12:30N 29°49' W 093°59'0 0.0
2018-Jun-10 12:00N 29°49' W 093°59'0 0.0
2018-Jun-10 11:31N 29°49' W 093°59'0 0.0
2018-Jun-10 11:01N 29°49' W 093°59'0 0.0
2018-Jun-10 10:30N 29°49' W 093°59'0 0.0
2018-Jun-10 10:00N 29°49' W 093°59'0 0.0
2018-Jun-10 09:30N 29°49' W 093°59'0 0.0
2018-Jun-10 09:00N 29°49' W 093°59'0 0.0
2018-Jun-10 08:30N 29°49' W 093°59'0 0.0
2018-Jun-10 08:01N 29°49' W 093°59'0 0.0
2018-Jun-10 07:31N 29°50' W 093°59'0 0.0
2018-Jun-10 07:00N 29°49' W 093°59'0 0.0
2018-Jun-10 06:30N 29°49' W 093°59'0 0.0
2018-Jun-10 06:00N 29°49' W 093°59'0 0.0
2018-Jun-10 05:30N 29°49' W 093°59'0 0.0
2018-Jun-10 05:01N 29°49' W 093°59'0 0.0
2018-Jun-10 04:30N 29°49' W 093°59'0 0.0
2018-Jun-10 04:00N 29°49' W 093°59'0 0.0
2018-Jun-10 03:31N 29°49' W 093°59'0 0.0
2018-Jun-10 03:01N 29°49' W 093°59'0 0.0
2018-Jun-10 02:30N 29°49' W 093°59'0 0.0
2018-Jun-10 02:01N 29°49' W 093°59'  

Dump ship's entire track history